sensor_id;sensor_type;location;lat;lon;timestamp;pressure;altitude;pressure_sealevel;temperature;humidity
13235;BME280;6683;48.506;9.050;2024-03-25T00:02:27;97439.53;;;7.81;64.94
13235;BME280;6683;48.506;9.050;2024-03-25T00:05:28;97437.09;;;7.79;65.15
13235;BME280;6683;48.506;9.050;2024-03-25T00:08:31;97434.66;;;7.78;65.04
13235;BME280;6683;48.506;9.050;2024-03-25T00:11:32;97439.09;;;7.77;64.98
13235;BME280;6683;48.506;9.050;2024-03-25T00:14:34;97435.44;;;7.78;65.20
13235;BME280;6683;48.506;9.050;2024-03-25T00:17:38;97440.69;;;7.78;65.04
13235;BME280;6683;48.506;9.050;2024-03-25T00:20:39;97436.25;;;7.79;65.11
13235;BME280;6683;48.506;9.050;2024-03-25T00:23:41;97432.03;;;7.78;64.99
13235;BME280;6683;48.506;9.050;2024-03-25T00:26:42;97432.03;;;7.78;64.88
13235;BME280;6683;48.506;9.050;2024-03-25T00:29:45;97432.81;;;7.78;64.96
13235;BME280;6683;48.506;9.050;2024-03-25T00:32:47;97432.81;;;7.78;65.05
13235;BME280;6683;48.506;9.050;2024-03-25T00:35:49;97432.03;;;7.78;65.05
13235;BME280;6683;48.506;9.050;2024-03-25T00:38:50;97427.97;;;7.75;65.05
13235;BME280;6683;48.506;9.050;2024-03-25T00:41:52;97429.13;;;7.73;64.96
13235;BME280;6683;48.506;9.050;2024-03-25T00:44:53;97429.97;;;7.73;65.05
13235;BME280;6683;48.506;9.050;2024-03-25T00:47:57;97422.44;;;7.70;64.87
13235;BME280;6683;48.506;9.050;2024-03-25T00:51:00;97419.19;;;7.68;65.04
13235;BME280;6683;48.506;9.050;2024-03-25T00:54:01;97417.94;;;7.64;65.05
13235;BME280;6683;48.506;9.050;2024-03-25T00:57:04;97417.50;;;7.61;65.16
13235;BME280;6683;48.506;9.050;2024-03-25T01:00:07;97412.63;;;7.58;65.22
13235;BME280;6683;48.506;9.050;2024-03-25T01:03:11;97412.81;;;7.56;65.11
13235;BME280;6683;48.506;9.050;2024-03-25T01:06:12;97405.75;;;7.57;65.39
13235;BME280;6683;48.506;9.050;2024-03-25T01:09:14;97404.94;;;7.56;65.16
13235;BME280;6683;48.506;9.050;2024-03-25T01:12:17;97406.72;;;7.56;65.05
13235;BME280;6683;48.506;9.050;2024-03-25T01:15:18;97408.53;;;7.55;65.20
13235;BME280;6683;48.506;9.050;2024-03-25T01:18:21;97403.47;;;7.54;65.34
13235;BME280;6683;48.506;9.050;2024-03-25T01:21:24;97403.28;;;7.55;65.49
13235;BME280;6683;48.506;9.050;2024-03-25T01:24:25;97403.28;;;7.55;65.25
13235;BME280;6683;48.506;9.050;2024-03-25T01:27:27;97406.72;;;7.56;65.15
13235;BME280;6683;48.506;9.050;2024-03-25T01:30:28;97399.88;;;7.55;65.47
13235;BME280;6683;48.506;9.050;2024-03-25T01:33:32;97403.28;;;7.55;65.42
13235;BME280;6683;48.506;9.050;2024-03-25T01:36:33;97406.53;;;7.57;65.42
13235;BME280;6683;48.506;9.050;2024-03-25T01:39:35;97405.34;;;7.60;65.60
13235;BME280;6683;48.506;9.050;2024-03-25T01:42:39;97406.19;;;7.60;65.36
13235;BME280;6683;48.506;9.050;2024-03-25T01:45:42;97413.69;;;7.63;65.60
13235;BME280;6683;48.506;9.050;2024-03-25T01:48:46;97413.13;;;7.68;65.60
13235;BME280;6683;48.506;9.050;2024-03-25T01:51:49;97411.13;;;7.70;65.53
13235;BME280;6683;48.506;9.050;2024-03-25T01:54:50;97415.19;;;7.72;65.55
13235;BME280;6683;48.506;9.050;2024-03-25T01:57:52;97410.38;;;7.76;65.63
13235;BME280;6683;48.506;9.050;2024-03-25T02:00:54;97409.38;;;7.77;65.53
13235;BME280;6683;48.506;9.050;2024-03-25T02:03:58;97412.63;;;7.79;65.50
13235;BME280;6683;48.506;9.050;2024-03-25T02:07:01;97409.81;;;7.80;65.55
13235;BME280;6683;48.506;9.050;2024-03-25T02:10:05;97404.75;;;7.79;65.48
13235;BME280;6683;48.506;9.050;2024-03-25T02:13:07;97404.53;;;7.80;65.66
13235;BME280;6683;48.506;9.050;2024-03-25T02:16:09;97396.66;;;7.80;65.46
13235;BME280;6683;48.506;9.050;2024-03-25T02:19:12;97392.44;;;7.79;65.52
13235;BME280;6683;48.506;9.050;2024-03-25T02:22:15;97400.13;;;7.81;65.24
13235;BME280;6683;48.506;9.050;2024-03-25T02:25:16;97394.03;;;7.80;65.43
13235;BME280;6683;48.506;9.050;2024-03-25T02:28:20;97392.63;;;7.78;65.58
13235;BME280;6683;48.506;9.050;2024-03-25T02:31:22;97397.06;;;7.77;65.35
13235;BME280;6683;48.506;9.050;2024-03-25T02:34:24;97396.25;;;7.77;65.34
13235;BME280;6683;48.506;9.050;2024-03-25T02:37:26;97388.56;;;7.75;65.29
13235;BME280;6683;48.506;9.050;2024-03-25T02:40:28;97392.16;;;7.74;65.23
13235;BME280;6683;48.506;9.050;2024-03-25T02:43:33;97388.09;;;7.72;65.31
13235;BME280;6683;48.506;9.050;2024-03-25T02:46:35;97385.47;;;7.72;65.38
13235;BME280;6683;48.506;9.050;2024-03-25T02:49:37;97390.09;;;7.70;65.36
13235;BME280;6683;48.506;9.050;2024-03-25T02:52:38;97384.06;;;7.69;65.34
13235;BME280;6683;48.506;9.050;2024-03-25T02:55:40;97373.91;;;7.66;65.48
13235;BME280;6683;48.506;9.050;2024-03-25T02:58:42;97374.47;;;7.62;65.52
13235;BME280;6683;48.506;9.050;2024-03-25T03:01:44;97373.84;;;7.60;65.24
13235;BME280;6683;48.506;9.050;2024-03-25T03:04:45;97364.72;;;7.56;65.26
13235;BME280;6683;48.506;9.050;2024-03-25T03:07:47;97365.91;;;7.53;65.31
13235;BME280;6683;48.506;9.050;2024-03-25T03:10:49;97364.66;;;7.49;65.25
13235;BME280;6683;48.506;9.050;2024-03-25T03:13:52;97380.59;;;7.48;65.36
13235;BME280;6683;48.506;9.050;2024-03-25T03:16:53;97379.00;;;7.47;65.23
13235;BME280;6683;48.506;9.050;2024-03-25T03:19:58;97381.00;;;7.45;65.37
13235;BME280;6683;48.506;9.050;2024-03-25T03:23:00;97373.28;;;7.43;65.52
13235;BME280;6683;48.506;9.050;2024-03-25T03:26:03;97375.28;;;7.41;65.44
13235;BME280;6683;48.506;9.050;2024-03-25T03:29:05;97374.84;;;7.38;65.21
13235;BME280;6683;48.506;9.050;2024-03-25T03:32:07;97374.84;;;7.38;65.26
13235;BME280;6683;48.506;9.050;2024-03-25T03:35:10;97377.66;;;7.36;65.28
13235;BME280;6683;48.506;9.050;2024-03-25T03:38:11;97375.22;;;7.35;65.54
13235;BME280;6683;48.506;9.050;2024-03-25T03:41:13;97383.09;;;7.35;65.57
13235;BME280;6683;48.506;9.050;2024-03-25T03:44:15;97393.59;;;7.35;65.54
13235;BME280;6683;48.506;9.050;2024-03-25T03:47:17;97394.78;;;7.32;65.31
13235;BME280;6683;48.506;9.050;2024-03-25T03:50:18;97395.78;;;7.31;65.68
13235;BME280;6683;48.506;9.050;2024-03-25T03:53:20;97395.78;;;7.31;65.41
13235;BME280;6683;48.506;9.050;2024-03-25T03:56:22;97395.78;;;7.31;65.56
13235;BME280;6683;48.506;9.050;2024-03-25T03:59:26;97390.88;;;7.28;65.53
13235;BME280;6683;48.506;9.050;2024-03-25T04:02:28;97387.47;;;7.28;65.50
13235;BME280;6683;48.506;9.050;2024-03-25T04:05:30;97388.44;;;7.26;65.67
13235;BME280;6683;48.506;9.050;2024-03-25T04:08:32;97393.50;;;7.28;65.88
13235;BME280;6683;48.506;9.050;2024-03-25T04:11:35;97382.38;;;7.26;65.17
13235;BME280;6683;48.506;9.050;2024-03-25T04:14:39;97383.59;;;7.23;65.05
13235;BME280;6683;48.506;9.050;2024-03-25T04:17:40;97378.69;;;7.20;65.48
13235;BME280;6683;48.506;9.050;2024-03-25T04:20:44;97385.94;;;7.18;65.20
13235;BME280;6683;48.506;9.050;2024-03-25T04:23:45;97381.72;;;7.17;65.58
13235;BME280;6683;48.506;9.050;2024-03-25T04:26:47;97379.09;;;7.17;65.37
13235;BME280;6683;48.506;9.050;2024-03-25T04:29:50;97374.19;;;7.14;65.33
13235;BME280;6683;48.506;9.050;2024-03-25T04:32:53;97378.00;;;7.12;65.58
13235;BME280;6683;48.506;9.050;2024-03-25T04:35:54;97382.81;;;7.08;65.78
13235;BME280;6683;48.506;9.050;2024-03-25T04:38:56;97382.19;;;7.06;65.31
13235;BME280;6683;48.506;9.050;2024-03-25T04:41:58;97385.97;;;7.04;65.70
13235;BME280;6683;48.506;9.050;2024-03-25T04:45:00;97383.53;;;7.02;65.25
13235;BME280;6683;48.506;9.050;2024-03-25T04:48:01;97386.16;;;7.02;65.41
13235;BME280;6683;48.506;9.050;2024-03-25T04:51:03;97382.91;;;7.00;65.41
13235;BME280;6683;48.506;9.050;2024-03-25T04:54:04;97381.66;;;6.96;65.07
13235;BME280;6683;48.506;9.050;2024-03-25T04:57:06;97375.16;;;6.92;65.21
13235;BME280;6683;48.506;9.050;2024-03-25T05:00:10;97393.03;;;6.89;65.45
13235;BME280;6683;48.506;9.050;2024-03-25T05:03:11;97385.56;;;6.86;65.45
13235;BME280;6683;48.506;9.050;2024-03-25T05:06:13;97386.91;;;6.82;65.41
13235;BME280;6683;48.506;9.050;2024-03-25T05:09:14;97395.97;;;6.79;65.51
13235;BME280;6683;48.506;9.050;2024-03-25T05:12:15;97390.72;;;6.79;65.46
13235;BME280;6683;48.506;9.050;2024-03-25T05:15:17;97389.25;;;6.77;65.41
13235;BME280;6683;48.506;9.050;2024-03-25T05:18:19;97384.22;;;6.75;65.20
13235;BME280;6683;48.506;9.050;2024-03-25T05:21:20;97382.56;;;6.74;65.61
13235;BME280;6683;48.506;9.050;2024-03-25T05:24:21;97384.22;;;6.75;66.02
13235;BME280;6683;48.506;9.050;2024-03-25T05:27:22;97387.47;;;6.77;65.41
13235;BME280;6683;48.506;9.050;2024-03-25T05:30:25;97378.59;;;6.78;65.80
13235;BME280;6683;48.506;9.050;2024-03-25T05:33:26;97384.84;;;6.77;65.92
13235;BME280;6683;48.506;9.050;2024-03-25T05:36:27;97392.50;;;6.79;65.74
13235;BME280;6683;48.506;9.050;2024-03-25T05:39:28;97393.97;;;6.81;65.89
13235;BME280;6683;48.506;9.050;2024-03-25T05:42:29;97397.03;;;6.85;65.58
13235;BME280;6683;48.506;9.050;2024-03-25T05:45:32;97391.25;;;6.89;65.78
13235;BME280;6683;48.506;9.050;2024-03-25T05:48:33;97405.44;;;6.95;65.40
13235;BME280;6683;48.506;9.050;2024-03-25T05:51:34;97404.25;;;6.97;65.58
13235;BME280;6683;48.506;9.050;2024-03-25T05:54:35;97407.69;;;6.98;65.12
13235;BME280;6683;48.506;9.050;2024-03-25T05:57:36;97402.25;;;6.99;65.66
13235;BME280;6683;48.506;9.050;2024-03-25T06:00:39;97401.72;;;7.04;65.31
13235;BME280;6683;48.506;9.050;2024-03-25T06:03:40;97399.53;;;7.07;65.81
13235;BME280;6683;48.506;9.050;2024-03-25T06:06:41;97395.53;;;7.11;65.37
13235;BME280;6683;48.506;9.050;2024-03-25T06:09:42;97389.13;;;7.14;65.37
13235;BME280;6683;48.506;9.050;2024-03-25T06:12:43;97396.00;;;7.15;65.75
13235;BME280;6683;48.506;9.050;2024-03-25T06:15:46;97395.44;;;7.19;65.46
13235;BME280;6683;48.506;9.050;2024-03-25T06:18:47;97395.69;;;7.24;65.46
13235;BME280;6683;48.506;9.050;2024-03-25T06:21:48;97396.13;;;7.28;65.77
13235;BME280;6683;48.506;9.050;2024-03-25T06:24:50;97399.22;;;7.32;65.55
13235;BME280;6683;48.506;9.050;2024-03-25T06:27:51;97392.41;;;7.37;66.02
13235;BME280;6683;48.506;9.050;2024-03-25T06:30:53;97391.66;;;7.43;66.02
13235;BME280;6683;48.506;9.050;2024-03-25T06:34:13;97393.53;;;7.49;65.94
13235;BME280;6683;48.506;9.050;2024-03-25T06:37:18;97393.59;;;7.56;65.62
13235;BME280;6683;48.506;9.050;2024-03-25T06:40:19;97399.47;;;7.58;65.56
13235;BME280;6683;48.506;9.050;2024-03-25T06:43:20;97413.69;;;7.63;65.79
13235;BME280;6683;48.506;9.050;2024-03-25T06:46:23;97410.31;;;7.69;66.10
13235;BME280;6683;48.506;9.050;2024-03-25T06:49:24;97414.63;;;7.77;65.98
13235;BME280;6683;48.506;9.050;2024-03-25T06:52:25;97409.25;;;7.85;65.85
13235;BME280;6683;48.506;9.050;2024-03-25T06:55:26;97406.69;;;7.91;65.80
13235;BME280;6683;48.506;9.050;2024-03-25T06:58:28;97418.88;;;7.99;65.81
13235;BME280;6683;48.506;9.050;2024-03-25T07:01:31;97421.19;;;8.08;65.67
13235;BME280;6683;48.506;9.050;2024-03-25T07:04:34;97412.34;;;8.16;65.83
13235;BME280;6683;48.506;9.050;2024-03-25T07:07:35;97410.06;;;8.28;65.93
13235;BME280;6683;48.506;9.050;2024-03-25T07:10:36;97405.69;;;8.41;65.87
13235;BME280;6683;48.506;9.050;2024-03-25T07:13:37;97400.13;;;8.57;65.91
13235;BME280;6683;48.506;9.050;2024-03-25T07:16:39;97391.94;;;8.73;65.72
13235;BME280;6683;48.506;9.050;2024-03-25T07:19:40;97386.97;;;8.92;65.80
13235;BME280;6683;48.506;9.050;2024-03-25T07:22:42;97398.19;;;9.13;65.57
13235;BME280;6683;48.506;9.050;2024-03-25T07:25:43;97384.53;;;9.44;65.72
13235;BME280;6683;48.506;9.050;2024-03-25T07:28:44;97390.47;;;9.79;65.54
13235;BME280;6683;48.506;9.050;2024-03-25T07:31:49;97386.63;;;10.01;65.37
13235;BME280;6683;48.506;9.050;2024-03-25T07:34:53;97392.16;;;10.25;65.20
13235;BME280;6683;48.506;9.050;2024-03-25T07:37:54;97387.66;;;10.45;64.75
13235;BME280;6683;48.506;9.050;2024-03-25T07:40:55;97378.72;;;10.60;64.67
13235;BME280;6683;48.506;9.050;2024-03-25T07:43:56;97385.16;;;10.77;64.64
13235;BME280;6683;48.506;9.050;2024-03-25T07:46:59;97374.75;;;10.95;64.35
13235;BME280;6683;48.506;9.050;2024-03-25T07:50:00;97378.97;;;11.09;64.21
13235;BME280;6683;48.506;9.050;2024-03-25T07:53:02;97378.31;;;11.20;64.11
13235;BME280;6683;48.506;9.050;2024-03-25T07:56:04;97375.41;;;11.35;63.82
13235;BME280;6683;48.506;9.050;2024-03-25T07:59:05;97368.00;;;11.43;63.66
13235;BME280;6683;48.506;9.050;2024-03-25T08:02:08;97378.75;;;11.55;63.59
13235;BME280;6683;48.506;9.050;2024-03-25T08:05:09;97375.03;;;11.62;62.74
13235;BME280;6683;48.506;9.050;2024-03-25T08:08:10;97368.91;;;11.68;62.97
13235;BME280;6683;48.506;9.050;2024-03-25T08:11:11;97363.00;;;11.73;62.21
13235;BME280;6683;48.506;9.050;2024-03-25T08:14:12;97366.22;;;11.75;62.07
13235;BME280;6683;48.506;9.050;2024-03-25T08:17:15;97358.31;;;11.75;61.97
13235;BME280;6683;48.506;9.050;2024-03-25T08:20:16;97350.59;;;11.73;61.72
13235;BME280;6683;48.506;9.050;2024-03-25T08:23:17;97351.59;;;11.72;61.76
13235;BME280;6683;48.506;9.050;2024-03-25T08:26:18;97354.88;;;11.74;61.77
13235;BME280;6683;48.506;9.050;2024-03-25T08:29:20;97351.41;;;11.74;61.64
13235;BME280;6683;48.506;9.050;2024-03-25T08:32:22;97350.59;;;11.73;61.71
13235;BME280;6683;48.506;9.050;2024-03-25T08:35:23;97347.31;;;11.78;61.60
13235;BME280;6683;48.506;9.050;2024-03-25T08:38:26;97340.94;;;11.85;62.00
13235;BME280;6683;48.506;9.050;2024-03-25T08:41:27;97336.75;;;12.02;61.61
13235;BME280;6683;48.506;9.050;2024-03-25T08:44:31;97323.59;;;12.14;61.25
13235;BME280;6683;48.506;9.050;2024-03-25T08:47:34;97321.88;;;12.26;61.14
13235;BME280;6683;48.506;9.050;2024-03-25T08:50:35;97322.72;;;12.45;61.42
13235;BME280;6683;48.506;9.050;2024-03-25T08:53:36;97312.50;;;12.66;61.20
13235;BME280;6683;48.506;9.050;2024-03-25T08:56:37;97307.78;;;12.87;60.89
13235;BME280;6683;48.506;9.050;2024-03-25T08:59:38;97308.00;;;13.03;60.79
13235;BME280;6683;48.506;9.050;2024-03-25T09:02:41;97300.78;;;13.10;60.25
13235;BME280;6683;48.506;9.050;2024-03-25T09:05:42;97309.47;;;13.17;60.41
13235;BME280;6683;48.506;9.050;2024-03-25T09:08:43;97314.75;;;13.17;60.39
13235;BME280;6683;48.506;9.050;2024-03-25T09:11:59;97300.63;;;13.23;60.25
13235;BME280;6683;48.506;9.050;2024-03-25T09:15:00;97300.19;;;13.38;60.31
13235;BME280;6683;48.506;9.050;2024-03-25T09:18:03;97298.06;;;13.58;60.12
13235;BME280;6683;48.506;9.050;2024-03-25T09:21:04;97294.19;;;13.72;59.77
13235;BME280;6683;48.506;9.050;2024-03-25T09:24:06;97295.59;;;13.86;59.56
13235;BME280;6683;48.506;9.050;2024-03-25T09:27:07;97284.53;;;13.89;59.49
13235;BME280;6683;48.506;9.050;2024-03-25T09:30:09;97275.88;;;14.05;59.39
13235;BME280;6683;48.506;9.050;2024-03-25T09:33:13;97261.81;;;14.28;59.29
13235;BME280;6683;48.506;9.050;2024-03-25T09:36:14;97269.31;;;14.43;58.50
13235;BME280;6683;48.506;9.050;2024-03-25T09:39:15;97264.47;;;14.51;58.47
13235;BME280;6683;48.506;9.050;2024-03-25T09:42:26;97262.91;;;14.67;58.10
13235;BME280;6683;48.506;9.050;2024-03-25T09:45:29;97266.44;;;14.84;57.48
13235;BME280;6683;48.506;9.050;2024-03-25T09:48:32;97258.47;;;14.95;56.92
13235;BME280;6683;48.506;9.050;2024-03-25T09:51:33;97256.38;;;14.97;56.50
13235;BME280;6683;48.506;9.050;2024-03-25T09:54:34;97244.69;;;14.98;55.92
13235;BME280;6683;48.506;9.050;2024-03-25T09:57:36;97237.63;;;15.04;55.82
13235;BME280;6683;48.506;9.050;2024-03-25T10:00:39;97233.28;;;15.14;55.59
13235;BME280;6683;48.506;9.050;2024-03-25T10:03:42;97226.69;;;15.17;55.24
13235;BME280;6683;48.506;9.050;2024-03-25T10:06:43;97218.88;;;15.27;54.97
13235;BME280;6683;48.506;9.050;2024-03-25T10:09:44;97206.56;;;15.38;54.89
13235;BME280;6683;48.506;9.050;2024-03-25T10:12:45;97198.00;;;15.47;54.49
13235;BME280;6683;48.506;9.050;2024-03-25T10:15:47;97194.78;;;15.62;54.17
13235;BME280;6683;48.506;9.050;2024-03-25T10:18:50;97188.22;;;15.86;54.03
13235;BME280;6683;48.506;9.050;2024-03-25T10:22:02;97176.56;;;16.09;53.41
13235;BME280;6683;48.506;9.050;2024-03-25T10:25:04;97172.59;;;16.11;52.37
13235;BME280;6683;48.506;9.050;2024-03-25T10:28:05;97162.31;;;15.98;51.97
13235;BME280;6683;48.506;9.050;2024-03-25T10:31:06;97166.69;;;15.87;51.46
13235;BME280;6683;48.506;9.050;2024-03-25T10:34:09;97166.94;;;15.69;51.46
13235;BME280;6683;48.506;9.050;2024-03-25T10:37:11;97163.28;;;15.54;51.27
13235;BME280;6683;48.506;9.050;2024-03-25T10:40:12;97162.22;;;15.55;51.30
13235;BME280;6683;48.506;9.050;2024-03-25T10:43:14;97153.25;;;15.61;51.27
13235;BME280;6683;48.506;9.050;2024-03-25T10:46:19;97164.25;;;15.64;51.25
13235;BME280;6683;48.506;9.050;2024-03-25T10:49:33;97158.56;;;15.77;51.45
13235;BME280;6683;48.506;9.050;2024-03-25T10:52:37;97148.78;;;15.99;51.00
13235;BME280;6683;48.506;9.050;2024-03-25T10:55:38;97141.47;;;16.12;50.63
13235;BME280;6683;48.506;9.050;2024-03-25T10:58:40;97132.31;;;16.24;50.07
13235;BME280;6683;48.506;9.050;2024-03-25T11:01:41;97122.44;;;16.46;50.09
13235;BME280;6683;48.506;9.050;2024-03-25T11:04:44;97118.44;;;16.65;49.79
13235;BME280;6683;48.506;9.050;2024-03-25T11:07:45;97120.50;;;16.85;49.36
13235;BME280;6683;48.506;9.050;2024-03-25T11:10:47;97112.72;;;17.10;49.09
13235;BME280;6683;48.506;9.050;2024-03-25T11:13:48;97102.44;;;17.24;48.71
13235;BME280;6683;48.506;9.050;2024-03-25T11:16:54;97095.66;;;17.43;48.54
13235;BME280;6683;48.506;9.050;2024-03-25T11:20:09;97084.91;;;17.70;48.55
13235;BME280;6683;48.506;9.050;2024-03-25T11:23:12;97082.09;;;17.91;47.89
13235;BME280;6683;48.506;9.050;2024-03-25T11:26:19;97077.94;;;18.20;47.56
13235;BME280;6683;48.506;9.050;2024-03-25T11:29:20;97065.72;;;18.40;47.05
13235;BME280;6683;48.506;9.050;2024-03-25T11:32:22;97060.44;;;18.50;47.20
13235;BME280;6683;48.506;9.050;2024-03-25T11:35:28;97047.34;;;18.58;46.99
13235;BME280;6683;48.506;9.050;2024-03-25T11:38:30;97045.22;;;18.80;46.90
13235;BME280;6683;48.506;9.050;2024-03-25T11:41:32;97038.00;;;19.11;46.03
13235;BME280;6683;48.506;9.050;2024-03-25T11:44:37;97024.34;;;19.43;45.27
13235;BME280;6683;48.506;9.050;2024-03-25T11:47:38;97021.13;;;19.61;44.91
13235;BME280;6683;48.506;9.050;2024-03-25T11:50:40;97011.69;;;19.78;44.67
13235;BME280;6683;48.506;9.050;2024-03-25T11:53:47;97004.13;;;19.96;44.07
13235;BME280;6683;48.506;9.050;2024-03-25T11:56:48;96993.09;;;20.02;43.81
13235;BME280;6683;48.506;9.050;2024-03-25T11:59:49;96998.41;;;20.12;43.57
13235;BME280;6683;48.506;9.050;2024-03-25T12:02:50;96986.56;;;20.28;43.30
13235;BME280;6683;48.506;9.050;2024-03-25T12:05:53;96994.00;;;20.36;42.81
13235;BME280;6683;48.506;9.050;2024-03-25T12:08:56;96973.88;;;20.39;42.75
13235;BME280;6683;48.506;9.050;2024-03-25T12:12:12;96965.91;;;20.34;42.20
13235;BME280;6683;48.506;9.050;2024-03-25T12:15:13;96954.44;;;20.13;42.28
13235;BME280;6683;48.506;9.050;2024-03-25T12:18:15;96955.59;;;20.02;41.79
13235;BME280;6683;48.506;9.050;2024-03-25T12:21:17;96948.94;;;19.94;41.54
13235;BME280;6683;48.506;9.050;2024-03-25T12:24:19;96938.25;;;19.89;41.26
13235;BME280;6683;48.506;9.050;2024-03-25T12:27:20;96938.03;;;19.76;41.13
13235;BME280;6683;48.506;9.050;2024-03-25T12:30:21;96923.31;;;19.73;41.52
13235;BME280;6683;48.506;9.050;2024-03-25T12:33:22;96919.00;;;19.82;41.22
13235;BME280;6683;48.506;9.050;2024-03-25T12:36:25;96916.56;;;19.91;40.74
13235;BME280;6683;48.506;9.050;2024-03-25T12:39:27;96910.38;;;19.90;40.63
13235;BME280;6683;48.506;9.050;2024-03-25T12:42:28;96909.16;;;19.73;40.47
13235;BME280;6683;48.506;9.050;2024-03-25T12:45:30;96904.16;;;19.51;40.58
13235;BME280;6683;48.506;9.050;2024-03-25T12:48:31;96892.16;;;19.44;40.68
13235;BME280;6683;48.506;9.050;2024-03-25T12:51:34;96883.88;;;19.40;40.67
13235;BME280;6683;48.506;9.050;2024-03-25T12:54:35;96882.53;;;19.33;40.59
13235;BME280;6683;48.506;9.050;2024-03-25T12:57:36;96861.22;;;19.02;40.60
13235;BME280;6683;48.506;9.050;2024-03-25T13:00:38;96860.53;;;18.62;41.07
13235;BME280;6683;48.506;9.050;2024-03-25T13:03:39;96861.88;;;18.24;41.50
13235;BME280;6683;48.506;9.050;2024-03-25T13:06:42;96853.03;;;17.93;41.77
13235;BME280;6683;48.506;9.050;2024-03-25T13:09:43;96845.78;;;17.64;42.29
13235;BME280;6683;48.506;9.050;2024-03-25T13:12:44;96849.41;;;17.42;42.44
13235;BME280;6683;48.506;9.050;2024-03-25T13:15:45;96843.75;;;17.24;42.80
13235;BME280;6683;48.506;9.050;2024-03-25T13:18:47;96843.16;;;17.07;42.96
13235;BME280;6683;48.506;9.050;2024-03-25T13:21:49;96831.06;;;16.84;43.18
13235;BME280;6683;48.506;9.050;2024-03-25T13:24:50;96819.81;;;16.72;43.09
13235;BME280;6683;48.506;9.050;2024-03-25T13:27:51;96810.41;;;16.59;43.16
13235;BME280;6683;48.506;9.050;2024-03-25T13:30:53;96806.84;;;16.49;43.40
13235;BME280;6683;48.506;9.050;2024-03-25T13:33:54;96817.19;;;16.40;43.20
13235;BME280;6683;48.506;9.050;2024-03-25T13:36:58;96803.00;;;16.30;43.26
13235;BME280;6683;48.506;9.050;2024-03-25T13:39:59;96797.09;;;16.23;43.29
13235;BME280;6683;48.506;9.050;2024-03-25T13:43:01;96802.94;;;16.20;43.61
13235;BME280;6683;48.506;9.050;2024-03-25T13:46:02;96788.78;;;16.14;43.43
13235;BME280;6683;48.506;9.050;2024-03-25T13:49:04;96784.50;;;16.08;43.45
13235;BME280;6683;48.506;9.050;2024-03-25T13:52:06;96777.00;;;16.05;43.51
13235;BME280;6683;48.506;9.050;2024-03-25T13:55:08;96766.09;;;16.07;43.38
13235;BME280;6683;48.506;9.050;2024-03-25T13:58:09;96764.50;;;16.06;43.45
13235;BME280;6683;48.506;9.050;2024-03-25T14:01:10;96757.81;;;16.03;43.47
13235;BME280;6683;48.506;9.050;2024-03-25T14:04:11;96753.53;;;16.02;43.46
13235;BME280;6683;48.506;9.050;2024-03-25T14:07:14;96748.22;;;16.02;43.24
13235;BME280;6683;48.506;9.050;2024-03-25T14:10:15;96748.22;;;16.02;43.39
13235;BME280;6683;48.506;9.050;2024-03-25T14:13:16;96741.59;;;16.05;43.12
13235;BME280;6683;48.506;9.050;2024-03-25T14:16:17;96738.69;;;16.06;43.12
13235;BME280;6683;48.506;9.050;2024-03-25T14:19:19;96730.72;;;16.06;43.09
13235;BME280;6683;48.506;9.050;2024-03-25T14:22:22;96718.19;;;16.07;43.03
13235;BME280;6683;48.506;9.050;2024-03-25T14:25:23;96713.41;;;16.09;42.92
13235;BME280;6683;48.506;9.050;2024-03-25T14:28:24;96705.47;;;16.14;43.05
13235;BME280;6683;48.506;9.050;2024-03-25T14:31:25;96708.66;;;16.16;43.17
13235;BME280;6683;48.506;9.050;2024-03-25T14:34:26;96705.75;;;16.17;43.25
13235;BME280;6683;48.506;9.050;2024-03-25T14:37:29;96688.97;;;16.17;43.29
13235;BME280;6683;48.506;9.050;2024-03-25T14:40:30;96692.72;;;16.21;43.34
13235;BME280;6683;48.506;9.050;2024-03-25T14:43:31;96686.88;;;16.24;42.98
13235;BME280;6683;48.506;9.050;2024-03-25T14:46:32;96682.09;;;16.26;42.88
13235;BME280;6683;48.506;9.050;2024-03-25T14:49:34;96673.06;;;16.27;42.81
13235;BME280;6683;48.506;9.050;2024-03-25T14:52:36;96670.13;;;16.28;42.68
13235;BME280;6683;48.506;9.050;2024-03-25T14:55:37;96667.75;;;16.32;42.54
13235;BME280;6683;48.506;9.050;2024-03-25T14:58:38;96661.88;;;16.30;42.15
13235;BME280;6683;48.506;9.050;2024-03-25T15:01:40;96660.03;;;16.30;42.17
13235;BME280;6683;48.506;9.050;2024-03-25T15:04:41;96652.00;;;16.25;42.11
13235;BME280;6683;48.506;9.050;2024-03-25T15:07:44;96647.75;;;16.24;42.19
13235;BME280;6683;48.506;9.050;2024-03-25T15:10:46;96658.94;;;16.26;42.00
13235;BME280;6683;48.506;9.050;2024-03-25T15:13:48;96659.22;;;16.30;41.96
13235;BME280;6683;48.506;9.050;2024-03-25T15:16:49;96653.63;;;16.31;41.91
13235;BME280;6683;48.506;9.050;2024-03-25T15:19:51;96652.56;;;16.32;41.76
13235;BME280;6683;48.506;9.050;2024-03-25T15:22:53;96638.72;;;16.30;41.66
13235;BME280;6683;48.506;9.050;2024-03-25T15:25:54;96636.31;;;16.29;41.66
13235;BME280;6683;48.506;9.050;2024-03-25T15:28:55;96631.00;;;16.29;41.66
13235;BME280;6683;48.506;9.050;2024-03-25T15:31:56;96624.59;;;16.30;41.53
13235;BME280;6683;48.506;9.050;2024-03-25T15:34:59;96620.34;;;16.29;41.33
13235;BME280;6683;48.506;9.050;2024-03-25T15:38:01;96617.41;;;16.30;41.27
13235;BME280;6683;48.506;9.050;2024-03-25T15:41:03;96611.03;;;16.31;41.29
13235;BME280;6683;48.506;9.050;2024-03-25T15:44:04;96601.44;;;16.30;41.16
13235;BME280;6683;48.506;9.050;2024-03-25T15:47:06;96589.72;;;16.31;40.94
13235;BME280;6683;48.506;9.050;2024-03-25T15:50:07;96596.13;;;16.30;41.11
13235;BME280;6683;48.506;9.050;2024-03-25T15:53:10;96584.13;;;16.28;40.91
13235;BME280;6683;48.506;9.050;2024-03-25T15:56:11;96587.88;;;16.27;41.07
13235;BME280;6683;48.506;9.050;2024-03-25T15:59:13;96580.66;;;16.27;41.12
13235;BME280;6683;48.506;9.050;2024-03-25T16:02:14;96581.19;;;16.24;40.97
13235;BME280;6683;48.506;9.050;2024-03-25T16:05:15;96576.38;;;16.21;41.05
13235;BME280;6683;48.506;9.050;2024-03-25T16:08:17;96574.00;;;16.20;40.97
13235;BME280;6683;48.506;9.050;2024-03-25T16:11:19;96576.66;;;16.20;40.77
13235;BME280;6683;48.506;9.050;2024-03-25T16:14:20;96579.81;;;16.17;40.92
13235;BME280;6683;48.506;9.050;2024-03-25T16:17:21;96560.91;;;16.13;41.00
13235;BME280;6683;48.506;9.050;2024-03-25T16:20:22;96568.63;;;16.10;40.84
13235;BME280;6683;48.506;9.050;2024-03-25T16:23:25;96561.97;;;16.07;40.87